This is the latest recevied weather packets stored in our database for station/object K7LDN-13. If no packets are shown the sender has not sent any weather packets the latest 10 day(s).
| Time | Temp. | Humidity | Pressure | Rain* | Wind** | Luminosity | Snow |
|---|---|---|---|---|---|---|---|
| 1777947114 | 18.89° C | 37% | 1009.6 hPa | 0 mm | - | 8 W/m² | - |
| 1777946810 | 18.33° C | 37% | 1009.5 hPa | 0 mm | - | 12 W/m² | - |
| 1777946505 | 18.89° C | 37% | 1009.8 hPa | 0 mm | - | 16 W/m² | - |
| 1777946203 | 18.89° C | 37% | 1009.8 hPa | 0 mm | - | 24 W/m² | - |
| 1777945899 | 18.89° C | 36% | 1009.5 hPa | 0 mm | - | 32 W/m² | - |
| 1777945596 | 18.89° C | 36% | 1009.8 hPa | 0 mm | - | 41 W/m² | - |
| 1777945293 | 18.89° C | 36% | 1009.8 hPa | 0 mm | - | 47 W/m² | - |
| 1777944991 | 18.89° C | 36% | 1009.9 hPa | 0 mm | - | 53 W/m² | - |
| 1777944688 | 19.44° C | 36% | 1009.4 hPa | 0 mm | - | 33 W/m² | - |
| 1777944386 | 19.44° C | 35% | 1009.9 hPa | 0 mm | - | 59 W/m² | - |
| 1777944082 | 20.56° C | 30% | 1009.8 hPa | 0 mm | - | 64 W/m² | - |
| 1777943778 | 21.11° C | 30% | 1009.8 hPa | 0 mm | - | 89 W/m² | - |
| 1777943476 | 22.22° C | 28% | 1009.8 hPa | 0 mm | - | 118 W/m² | - |
| 1777943171 | 22.78° C | 26% | 1009.6 hPa | 0 mm | - | 111 W/m² | - |
| 1777942868 | 22.78° C | 27% | 1009.9 hPa | 0 mm | - | 169 W/m² | - |
| 1777942564 | 21.67° C | 27% | 1009.9 hPa | 0 mm | - | 190 W/m² | - |
| 1777942261 | 21.11° C | 29% | 1009.9 hPa | 0 mm | - | 170 W/m² | - |
| 1777941958 | 21.67° C | 27% | 1009.9 hPa | 0 mm | - | 133 W/m² | - |
| 1777941655 | 22.78° C | 27% | 1010.1 hPa | 0 mm | - | 251 W/m² | - |
| 1777941352 | 21.11° C | 29% | 1010.1 hPa | 0 mm | - | 262 W/m² | - |
| 1777941049 | 20.56° C | 30% | 1010 hPa | 0 mm | - | 214 W/m² | - |
| 1777940744 | 20.56° C | 30% | 1009.9 hPa | 0 mm | - | 163 W/m² | - |
| 1777940443 | 20.56° C | 32% | 1009.9 hPa | 0 mm | - | 159 W/m² | - |
| 1777940140 | 20.56° C | 31% | 1009.9 hPa | 0 mm | - | 156 W/m² | - |
| 1777939837 | 20.56° C | 32% | 1009.9 hPa | 0 mm | - | 175 W/m² | - |
* Rain latest hour (hover to see other rain measurements)
** Current wind speed in m/s (hover to see current wind gust speed)